createdAt,value
2018-06-20T00:01:52.655Z,97726.02
2018-06-20T00:04:22.384Z,97721.47
2018-06-20T00:06:51.622Z,97719.05
2018-06-20T00:09:21.210Z,97724.46
2018-06-20T00:11:51.943Z,97725.60
2018-06-20T00:14:21.345Z,97715.86
2018-06-20T00:16:56.931Z,97719.38
2018-06-20T00:19:26.136Z,97715.09
2018-06-20T00:21:55.703Z,97714.82
2018-06-20T00:24:26.711Z,97709.96
2018-06-20T00:26:55.936Z,97715.31
2018-06-20T00:29:26.045Z,97708.33
2018-06-20T00:31:55.256Z,97704.48
2018-06-20T00:34:25.324Z,97707.74
2018-06-20T00:36:55.251Z,97709.13
2018-06-20T00:39:26.223Z,97701.02
2018-06-20T00:41:55.434Z,97700.48
2018-06-20T00:44:25.082Z,97697.50
2018-06-20T00:46:54.347Z,97688.58
2018-06-20T00:49:25.932Z,97696.41
2018-06-20T00:51:55.154Z,97685.02
2018-06-20T00:54:24.707Z,97686.09
2018-06-20T00:56:54.804Z,97683.12
2018-06-20T00:59:24.038Z,97675.80
2018-06-20T01:01:53.258Z,97677.14
2018-06-20T01:04:22.838Z,97678.23
2018-06-20T01:06:52.034Z,97676.31
2018-06-20T01:09:21.262Z,97681.17
2018-06-20T01:11:50.632Z,97677.92
2018-06-20T01:14:21.121Z,97677.13
2018-06-20T01:16:50.689Z,97673.32
2018-06-20T01:19:21.723Z,97667.64
2018-06-20T01:21:51.978Z,97661.73
2018-06-20T01:24:22.707Z,97668.48
2018-06-20T01:26:52.907Z,97662.30
2018-06-20T01:29:22.132Z,97669.05
2018-06-20T01:31:51.987Z,97662.30
2018-06-20T01:34:22.644Z,97667.45
2018-06-20T01:36:52.534Z,97668.55
2018-06-20T01:39:21.760Z,97660.97
2018-06-20T01:41:50.951Z,97658.80
2018-06-20T01:44:20.187Z,97657.17
2018-06-20T01:46:50.882Z,97659.33
2018-06-20T01:49:20.902Z,97654.73
2018-06-20T01:51:50.503Z,97663.11
2018-06-20T01:54:20.031Z,97663.08
2018-06-20T01:56:49.222Z,97659.84
2018-06-20T01:59:18.723Z,97655.76
2018-06-20T02:01:48.142Z,97656.58
2018-06-20T02:04:17.699Z,97647.89
2018-06-20T02:06:47.663Z,97648.44
2018-06-20T02:09:16.966Z,97648.44
2018-06-20T02:11:46.495Z,97647.63
2018-06-20T02:14:15.722Z,97645.48
2018-06-20T02:16:45.076Z,97639.48
2018-06-20T02:19:14.611Z,97643.02
2018-06-20T02:21:43.860Z,97640.88
2018-06-20T02:24:13.090Z,97647.38
2018-06-20T02:26:42.575Z,97641.97
2018-06-20T02:29:12.074Z,97640.60
2018-06-20T02:31:42.199Z,97641.95
2018-06-20T02:34:11.703Z,97635.42
2018-06-20T02:36:41.167Z,97640.60
2018-06-20T02:39:11.013Z,97644.92
2018-06-20T02:41:40.530Z,97637.87
2018-06-20T02:44:10.107Z,97632.48
2018-06-20T02:46:39.676Z,97636.23
2018-06-20T02:49:09.441Z,97639.52
2018-06-20T02:51:41.217Z,97637.61
2018-06-20T02:54:12.430Z,97640.03
2018-06-20T02:56:41.663Z,97629.23
2018-06-20T02:59:12.352Z,97638.40
2018-06-20T03:01:41.992Z,97635.13
2018-06-20T03:04:14.632Z,97631.31
2018-06-20T03:06:44.203Z,97633.73
2018-06-20T03:09:18.631Z,97629.13
2018-06-20T03:11:48.803Z,97631.84
2018-06-20T03:14:19.231Z,97627.82
2018-06-20T03:16:48.438Z,97627.77
2018-06-20T03:19:18.465Z,97624.25
2018-06-20T03:21:48.136Z,97625.90
2018-06-20T03:24:17.655Z,97635.66
2018-06-20T03:26:47.763Z,97627.28
2018-06-20T03:29:17.291Z,97633.49
2018-06-20T03:31:47.831Z,97630.48
2018-06-20T03:34:17.052Z,97625.30
2018-06-20T03:36:47.059Z,97630.15
2018-06-20T03:39:17.547Z,97630.73
2018-06-20T03:41:47.799Z,97628.88
2018-06-20T03:44:17.231Z,97630.78
2018-06-20T03:46:46.871Z,97635.89
2018-06-20T03:49:16.474Z,97632.88
2018-06-20T03:51:46.270Z,97624.70
2018-06-20T03:54:15.726Z,97624.95
2018-06-20T03:56:45.341Z,97625.52
2018-06-20T03:59:15.918Z,97622.79
2018-06-20T04:01:45.862Z,97623.78
2018-06-20T04:04:15.327Z,97622.67
2018-06-20T04:06:44.536Z,97616.63
2018-06-20T04:09:14.304Z,97618.19
2018-06-20T04:11:44.218Z,97613.53
2018-06-20T04:15:37.803Z,97612.10
2018-06-20T04:18:08.615Z,97611.33
2018-06-20T04:20:37.795Z,97619.00
2018-06-20T04:23:07.891Z,97610.63
2018-06-20T04:25:37.074Z,97608.89
2018-06-20T04:28:06.957Z,97607.41
2018-06-20T04:30:36.123Z,97602.92
2018-06-20T04:33:05.563Z,97596.53
2018-06-20T04:35:35.027Z,97597.77
2018-06-20T04:38:04.259Z,97596.63
2018-06-20T04:40:33.480Z,97592.23
2018-06-20T04:43:03.914Z,97597.83
2018-06-20T04:45:33.179Z,97598.97
2018-06-20T04:48:02.625Z,97592.62
2018-06-20T04:50:32.107Z,97597.27
2018-06-20T04:53:01.540Z,97594.56
2018-06-20T04:55:30.830Z,97592.94
2018-06-20T04:58:00.464Z,97592.30
2018-06-20T05:00:29.907Z,97590.13
2018-06-20T05:02:59.087Z,97590.44
2018-06-20T05:05:28.343Z,97585.91
2018-06-20T05:07:57.790Z,97579.64
2018-06-20T05:10:29.185Z,97583.17
2018-06-20T05:12:59.286Z,97587.08
2018-06-20T05:15:28.591Z,97578.42
2018-06-20T05:17:59.051Z,97578.52
2018-06-20T05:20:28.466Z,97578.13
2018-06-20T05:22:57.658Z,97572.13
2018-06-20T05:25:27.704Z,97578.02
2018-06-20T05:27:57.492Z,97577.10
2018-06-20T05:30:27.384Z,97579.48
2018-06-20T05:32:56.830Z,97575.27
2018-06-20T05:35:26.936Z,97579.53
2018-06-20T05:37:56.624Z,97576.13
2018-06-20T05:40:25.835Z,97578.22
2018-06-20T05:42:55.131Z,97574.80
2018-06-20T05:45:24.339Z,97575.93
2018-06-20T05:47:53.720Z,97578.28
2018-06-20T05:50:24.027Z,97574.72
2018-06-20T05:52:53.200Z,97571.88
2018-06-20T05:55:22.434Z,97568.73
2018-06-20T05:57:52.756Z,97577.63
2018-06-20T06:00:22.698Z,97568.66
2018-06-20T06:02:52.299Z,97578.11
2018-06-20T06:05:23.823Z,97580.25
2018-06-20T06:07:53.129Z,97591.83
2018-06-20T06:10:23.506Z,97589.98
2018-06-20T06:12:55.318Z,97584.80
2018-06-20T06:15:24.539Z,97592.53
2018-06-20T06:17:53.991Z,97585.56
2018-06-20T06:20:24.203Z,97586.45
2018-06-20T06:22:56.956Z,97583.83
2018-06-20T06:25:26.166Z,97591.61
2018-06-20T06:27:56.936Z,97589.91
2018-06-20T06:30:26.122Z,97583.98
2018-06-20T06:32:55.887Z,97577.16
2018-06-20T06:35:25.876Z,97588.09
2018-06-20T06:37:56.916Z,97584.66
2018-06-20T06:40:26.480Z,97584.37
2018-06-20T06:42:56.615Z,97590.39
2018-06-20T06:45:26.055Z,97579.63
2018-06-20T06:47:55.722Z,97582.02
2018-06-20T06:50:24.919Z,97584.58
2018-06-20T06:52:54.175Z,97585.36
2018-06-20T06:55:24.116Z,97581.11
2018-06-20T06:57:53.615Z,97575.03
2018-06-20T07:00:24.948Z,97566.20
2018-06-20T07:02:54.687Z,97566.05
2018-06-20T07:05:23.892Z,97566.94
2018-06-20T07:07:54.088Z,97567.20
2018-06-20T07:10:23.383Z,97568.47
2018-06-20T07:12:52.882Z,97573.22
2018-06-20T07:15:23.327Z,97573.62
2018-06-20T07:17:53.796Z,97572.02
2018-06-20T07:20:23.411Z,97567.16
2018-06-20T07:22:52.878Z,97567.10
2018-06-20T07:25:22.043Z,97565.17
2018-06-20T07:27:52.855Z,97560.33
2018-06-20T07:30:23.283Z,97568.63
2018-06-20T07:32:54.079Z,97568.70
2018-06-20T07:35:24.740Z,97574.53
2018-06-20T07:37:53.943Z,97566.31
2018-06-20T07:40:23.122Z,97571.19
2018-06-20T07:42:52.311Z,97570.76
2018-06-20T07:45:21.706Z,97572.99
2018-06-20T07:47:50.887Z,97566.62
2018-06-20T07:50:21.611Z,97566.61
2018-06-20T07:52:51.136Z,97567.77
2018-06-20T07:55:20.482Z,97566.55
2018-06-20T07:57:49.955Z,97560.16
2018-06-20T08:00:24.495Z,97555.77
2018-06-20T08:03:10.371Z,97560.94
2018-06-20T08:05:45.123Z,97557.91
2018-06-20T08:08:19.594Z,97557.30
2018-06-20T08:10:54.357Z,97555.47
2018-06-20T08:13:29.079Z,97555.13
2018-06-20T08:16:03.502Z,97549.20
2018-06-20T08:18:38.004Z,97545.03
2018-06-20T08:21:07.371Z,97554.83
2018-06-20T08:23:36.823Z,97552.42
2018-06-20T08:26:06.036Z,97552.02
2018-06-20T08:28:35.252Z,97548.50
2018-06-20T08:31:04.435Z,97548.06
2018-06-20T08:33:33.923Z,97554.47
2018-06-20T08:36:03.595Z,97555.86
2018-06-20T08:38:32.786Z,97550.45
2018-06-20T08:41:01.966Z,97558.97
2018-06-20T08:43:31.339Z,97561.27
2018-06-20T08:46:00.911Z,97554.23
2018-06-20T08:48:30.109Z,97558.42
2018-06-20T08:51:00.127Z,97552.45
2018-06-20T08:53:29.968Z,97544.84
2018-06-20T08:55:59.150Z,97550.19
2018-06-20T08:58:28.483Z,97544.22
2018-06-20T09:01:01.526Z,97550.93
2018-06-20T09:03:31.010Z,97541.61
2018-06-20T09:06:06.456Z,97531.63
2018-06-20T09:08:40.878Z,97536.12
2018-06-20T09:11:15.898Z,97535.46
2018-06-20T09:13:50.414Z,97533.39
2018-06-20T09:16:25.490Z,97537.41
2018-06-20T09:18:59.907Z,97532.97
2018-06-20T09:21:29.159Z,97527.69
2018-06-20T09:23:58.338Z,97531.23
2018-06-20T09:26:27.573Z,97527.77
2018-06-20T09:28:57.371Z,97530.29
2018-06-20T09:31:26.874Z,97528.06
2018-06-20T09:33:56.526Z,97529.55
2018-06-20T09:36:26.627Z,97526.42
2018-06-20T09:38:55.798Z,97525.92
2018-06-20T09:41:25.007Z,97520.75
2018-06-20T09:43:54.459Z,97523.56
2018-06-20T09:46:23.834Z,97519.26
2018-06-20T09:48:53.014Z,97520.33
2018-06-20T09:51:22.231Z,97522.83
2018-06-20T09:53:51.980Z,97516.25
2018-06-20T09:56:21.314Z,97519.42
2018-06-20T09:58:50.787Z,97512.53
2018-06-20T10:01:26.244Z,97506.89
2018-06-20T10:04:00.699Z,97506.02
2018-06-20T10:06:35.144Z,97506.80
2018-06-20T10:09:09.847Z,97507.63
2018-06-20T10:11:44.857Z,97506.22
2018-06-20T10:14:14.467Z,97507.02
2018-06-20T10:16:44.105Z,97500.23
2018-06-20T10:19:13.295Z,97499.77
2018-06-20T10:21:42.610Z,97498.03
2018-06-20T10:24:11.804Z,97500.09
2018-06-20T10:26:41.046Z,97489.14
2018-06-20T10:29:10.239Z,97491.48
2018-06-20T10:31:39.879Z,97495.42
2018-06-20T10:34:09.386Z,97499.61
2018-06-20T10:36:38.835Z,97486.98
2018-06-20T10:39:09.935Z,97483.34
2018-06-20T10:41:40.227Z,97480.03
2018-06-20T12:00:15.363Z,97398.02
2018-06-20T12:02:49.971Z,97393.98
2018-06-20T12:05:24.515Z,97393.30
2018-06-20T12:07:59.219Z,97387.69
2018-06-20T12:10:33.763Z,97382.16
2018-06-20T12:13:08.203Z,97377.93
2018-06-20T12:15:42.616Z,97378.87
2018-06-20T12:18:17.171Z,97367.83
2018-06-20T12:20:51.734Z,97369.19
2018-06-20T12:23:26.902Z,97371.31
2018-06-20T12:26:01.495Z,97370.97
2018-06-20T12:28:36.587Z,97367.61
2018-06-20T12:31:11.118Z,97366.93
2018-06-20T12:33:45.540Z,97361.59
2018-06-20T12:36:19.935Z,97356.79
2018-06-20T12:38:54.297Z,97354.39
2018-06-20T12:41:28.991Z,97354.14
2018-06-20T12:44:03.479Z,97350.92
2018-06-20T12:46:38.912Z,97344.61
2018-06-20T12:49:09.243Z,97346.48
2018-06-20T12:51:38.852Z,97335.53
2018-06-20T12:54:08.423Z,97337.79
2018-06-20T12:56:37.650Z,97338.64
2018-06-20T12:59:06.960Z,97333.47
2018-06-20T13:01:36.163Z,97327.44
2018-06-20T13:04:05.371Z,97326.03
2018-06-20T13:06:34.542Z,97328.42
2018-06-20T13:09:05.971Z,97341.61
2018-06-20T13:11:35.195Z,97332.05
2018-06-20T13:14:04.543Z,97331.69
2018-06-20T13:16:33.986Z,97336.30
2018-06-20T13:19:03.210Z,97330.72
2018-06-20T13:21:32.418Z,97328.56
2018-06-20T13:24:01.595Z,97319.81
2018-06-20T13:26:30.795Z,97319.69
2018-06-20T13:28:59.985Z,97329.25
2018-06-20T13:31:34.654Z,97321.97
2018-06-20T13:34:09.369Z,97319.36
2018-06-20T13:36:43.863Z,97312.66
2018-06-20T13:39:18.490Z,97304.08
2018-06-20T13:41:52.827Z,97302.42
2018-06-20T13:44:23.302Z,97306.03
2018-06-20T13:46:58.302Z,97302.64
2018-06-20T13:49:27.977Z,97300.09
2018-06-20T13:51:57.239Z,97294.34
2018-06-20T13:54:26.435Z,97291.98
2018-06-20T13:56:55.850Z,97292.86
2018-06-20T13:59:25.069Z,97292.01
2018-06-20T14:01:54.212Z,97292.16
2018-06-20T14:04:23.798Z,97284.02
2018-06-20T14:06:53.422Z,97285.01
2018-06-20T14:09:23.012Z,97286.05
2018-06-20T14:11:52.749Z,97294.78
2018-06-20T14:14:22.294Z,97285.87
2018-06-20T14:16:51.548Z,97282.42
2018-06-20T14:19:24.854Z,97277.34
2018-06-20T14:21:54.331Z,97274.97
2018-06-20T14:24:23.507Z,97282.02
2018-06-20T14:26:52.826Z,97280.27
2018-06-20T14:29:22.347Z,97280.44
2018-06-20T14:31:57.211Z,97271.53
2018-06-20T14:34:32.795Z,97268.36
2018-06-20T14:37:07.195Z,97265.22
2018-06-20T14:39:41.658Z,97271.70
2018-06-20T14:42:16.210Z,97264.02
2018-06-20T14:44:45.758Z,97270.13
2018-06-20T14:47:15.401Z,97261.44
2018-06-20T14:49:45.619Z,97256.72
2018-06-20T14:52:15.255Z,97252.93
2018-06-20T14:54:44.441Z,97251.17
2018-06-20T14:57:13.962Z,97246.76
2018-06-20T14:59:43.159Z,97254.28
2018-06-20T15:02:12.367Z,97251.63
2018-06-20T15:04:41.571Z,97247.98
2018-06-20T15:07:11.196Z,97247.27
2018-06-20T15:09:40.704Z,97241.72
2018-06-20T15:12:10.227Z,97240.27
2018-06-20T15:14:39.435Z,97234.33
2018-06-20T15:17:13.963Z,97244.66
2018-06-20T15:19:43.383Z,97237.91
2018-06-20T15:22:12.690Z,97229.77
2018-06-20T15:24:41.930Z,97229.17
2018-06-20T15:27:16.349Z,97232.31
2018-06-20T15:29:50.825Z,97228.20
2018-06-20T15:32:25.315Z,97221.05
2018-06-20T15:34:59.974Z,97225.44
2018-06-20T15:37:34.859Z,97220.53
2018-06-20T15:40:04.679Z,97221.48
2018-06-20T15:42:33.878Z,97210.86
2018-06-20T15:45:03.335Z,97201.08
2018-06-20T15:47:32.511Z,97202.05
2018-06-20T15:50:01.750Z,97209.56
2018-06-20T15:52:31.160Z,97207.08
2018-06-20T15:55:00.482Z,97206.86
2018-06-20T15:57:30.710Z,97202.39
2018-06-20T16:00:00.260Z,97194.20
2018-06-20T16:02:29.882Z,97200.53
2018-06-20T16:04:59.079Z,97190.80
2018-06-20T16:07:28.266Z,97197.42
2018-06-20T16:09:59.203Z,97189.11
2018-06-20T16:12:28.558Z,97191.67
2018-06-20T16:14:58.168Z,97189.34
2018-06-20T16:17:27.620Z,97183.73
2018-06-20T16:20:01.981Z,97180.94
2018-06-20T16:22:36.972Z,97184.75
2018-06-20T16:25:11.810Z,97173.33
2018-06-20T16:27:46.203Z,97171.22
2018-06-20T16:30:20.867Z,97165.73
2018-06-20T16:32:50.064Z,97167.82
2018-06-20T16:35:19.643Z,97169.70
2018-06-20T16:37:48.821Z,97163.19
2018-06-20T16:40:18.031Z,97168.67
2018-06-20T16:42:47.254Z,97167.16
2018-06-20T16:45:16.438Z,97166.50
2018-06-20T16:47:45.679Z,97167.45
2018-06-20T16:50:15.051Z,97165.63
2018-06-20T16:52:44.274Z,97162.94
2018-06-20T16:55:13.482Z,97161.17
2018-06-20T16:57:42.930Z,97156.47
2018-06-20T17:00:12.234Z,97154.10
2018-06-20T17:02:42.644Z,97161.19
2018-06-20T17:05:12.470Z,97157.44
2018-06-20T17:07:41.868Z,97153.82
2018-06-20T17:10:11.268Z,97155.20
2018-06-20T17:12:46.139Z,97152.97
2018-06-20T17:15:20.776Z,97150.74
2018-06-20T17:17:55.106Z,97147.81
2018-06-20T17:20:29.839Z,97147.55
2018-06-20T17:23:05.328Z,97144.30
2018-06-20T17:25:35.278Z,97146.31
2018-06-20T17:28:04.767Z,97146.17
2018-06-20T17:30:34.314Z,97141.89
2018-06-20T17:33:04.103Z,97145.84
2018-06-20T17:35:33.395Z,97142.67
2018-06-20T17:38:02.663Z,97140.72
2018-06-20T17:40:31.779Z,97139.11
2018-06-20T17:43:01.510Z,97138.19
2018-06-20T17:45:30.711Z,97132.11
2018-06-20T17:47:59.922Z,97126.16
2018-06-20T17:50:29.987Z,97127.24
2018-06-20T17:52:59.191Z,97116.16
2018-06-20T17:55:28.843Z,97122.73
2018-06-20T17:57:58.151Z,97120.02
2018-06-20T18:00:27.714Z,97110.59
2018-06-20T18:02:56.927Z,97109.31
2018-06-20T18:05:31.367Z,97115.02
2018-06-20T18:08:05.811Z,97114.18
2018-06-20T18:10:40.234Z,97115.15
2018-06-20T18:13:09.423Z,97113.20
2018-06-20T18:15:44.030Z,97107.73
2018-06-20T18:18:13.443Z,97108.59
2018-06-20T18:20:42.633Z,97105.65
2018-06-20T18:23:11.836Z,97108.30
2018-06-20T18:25:41.013Z,97105.99
2018-06-20T18:28:10.219Z,97102.23
2018-06-20T18:30:39.789Z,97104.98
2018-06-20T18:33:08.999Z,97100.45
2018-06-20T18:35:38.591Z,97099.73
2018-06-20T18:38:08.436Z,97100.53
2018-06-20T18:40:37.614Z,97107.25
2018-06-20T18:43:06.975Z,97103.13
2018-06-20T18:45:36.237Z,97106.30
2018-06-20T18:48:12.963Z,97105.88
2018-06-20T18:50:42.830Z,97102.83
2018-06-20T18:53:12.142Z,97100.94
2018-06-20T18:55:41.347Z,97106.70
2018-06-20T18:58:15.771Z,97099.14
2018-06-20T19:00:50.550Z,97092.29
2018-06-20T19:03:25.070Z,97096.17
2018-06-20T19:05:59.488Z,97103.89
2018-06-20T19:08:34.627Z,97096.98
2018-06-20T19:11:03.928Z,97094.52
2018-06-20T19:15:02.283Z,97095.98
2018-06-20T19:17:31.423Z,97096.44
2018-06-20T19:20:00.926Z,97101.41
2018-06-20T19:22:30.114Z,97103.59
2018-06-20T19:25:00.400Z,97114.03
2018-06-20T19:27:29.986Z,97108.36
2018-06-20T19:29:59.207Z,97107.89
2018-06-20T19:32:28.474Z,97108.41
2018-06-20T19:34:58.318Z,97109.88
2018-06-20T19:37:27.779Z,97109.44
2018-06-20T19:39:56.991Z,97113.84
2018-06-20T19:42:26.830Z,97109.10
2018-06-20T19:44:56.088Z,97110.27
2018-06-20T19:47:25.402Z,97122.10
2018-06-20T19:49:55.334Z,97121.52
2018-06-20T19:52:24.947Z,97123.80
2018-06-20T19:54:54.550Z,97120.61
2018-06-20T19:57:23.735Z,97117.41
2018-06-20T19:59:52.982Z,97118.58
2018-06-20T20:02:22.456Z,97116.84
2018-06-20T20:04:51.879Z,97121.94
2018-06-20T20:07:21.064Z,97123.77
2018-06-20T20:09:50.478Z,97131.00
2018-06-20T20:12:19.671Z,97128.83
2018-06-20T20:14:48.911Z,97128.28
2018-06-20T20:17:18.046Z,97127.56
2018-06-20T20:19:47.222Z,97139.39
2018-06-20T20:22:16.422Z,97137.77
2018-06-20T20:24:45.584Z,97137.27
2018-06-20T20:27:15.155Z,97135.47
2018-06-20T20:29:44.341Z,97134.41
2018-06-20T20:32:13.558Z,97139.64
2018-06-20T20:34:42.735Z,97140.30
2018-06-20T20:37:12.363Z,97139.65
2018-06-20T20:39:41.931Z,97136.74
2018-06-20T20:42:11.171Z,97134.21
2018-06-20T20:44:40.475Z,97136.66
2018-06-20T20:47:09.906Z,97142.21
2018-06-20T20:49:39.152Z,97148.53
2018-06-20T20:52:08.408Z,97145.86
2018-06-20T20:54:38.765Z,97146.77
2018-06-20T20:57:08.415Z,97140.85
2018-06-20T20:59:39.119Z,97146.09
2018-06-20T21:02:09.263Z,97148.47
2018-06-20T21:04:38.747Z,97141.27
2018-06-20T21:07:08.287Z,97144.59
2018-06-20T21:09:38.604Z,97146.89
2018-06-20T21:12:07.903Z,97144.63
2018-06-20T21:14:38.640Z,97143.63
2018-06-20T21:17:07.843Z,97146.73
2018-06-20T21:19:37.302Z,97144.82
2018-06-20T21:22:06.607Z,97149.97
2018-06-20T21:24:35.799Z,97149.91
2018-06-20T21:27:05.031Z,97147.83
2018-06-20T21:29:34.601Z,97145.09
2018-06-20T21:32:03.763Z,97143.64
2018-06-20T21:34:32.968Z,97144.45
2018-06-20T21:37:02.139Z,97144.66
2018-06-20T21:39:31.352Z,97143.18
2018-06-20T21:42:00.838Z,97137.29
2018-06-20T21:44:30.362Z,97136.91
2018-06-20T21:46:59.555Z,97138.92
2018-06-20T21:49:28.755Z,97129.40
2018-06-20T21:51:57.958Z,97130.03
2018-06-20T21:54:27.171Z,97127.83
2018-06-20T21:56:56.346Z,97122.22
2018-06-20T21:59:25.862Z,97122.97
2018-06-20T22:01:55.376Z,97127.72
2018-06-20T22:04:24.619Z,97123.55
2018-06-20T22:06:54.058Z,97117.93
2018-06-20T22:09:23.683Z,97116.23
2018-06-20T22:11:53.559Z,97113.75
2018-06-20T22:14:23.196Z,97110.62
2018-06-20T22:16:53.110Z,97107.09
2018-06-20T22:19:22.310Z,97116.61
2018-06-20T22:21:52.291Z,97116.12
2018-06-20T22:24:22.202Z,97106.36
2018-06-20T22:26:51.370Z,97103.22
2018-06-20T22:29:21.296Z,97107.17
2018-06-20T22:31:50.415Z,97111.16
2018-06-20T22:34:20.519Z,97104.59
2018-06-20T22:36:49.985Z,97096.86
2018-06-20T22:39:19.198Z,97092.59
2018-06-20T22:41:48.368Z,97098.48
2018-06-20T22:44:17.567Z,97099.70
2018-06-20T22:46:46.820Z,97094.28
2018-06-20T22:49:16.450Z,97089.09
2018-06-20T22:51:45.639Z,97085.69
2018-06-20T22:54:14.864Z,97088.60
2018-06-20T22:56:44.339Z,97088.66
2018-06-20T22:59:13.558Z,97086.65
2018-06-20T23:01:42.838Z,97087.66
2018-06-20T23:04:12.237Z,97082.69
2018-06-20T23:06:42.157Z,97081.08
2018-06-20T23:09:11.994Z,97076.22
2018-06-20T23:11:47.967Z,97078.70
2018-06-20T23:14:17.679Z,97075.98
2018-06-20T23:16:47.103Z,97069.23
2018-06-20T23:19:16.272Z,97071.94
2018-06-20T23:21:45.515Z,97075.09
2018-06-20T23:24:14.990Z,97073.37
2018-06-20T23:26:44.794Z,97072.17
2018-06-20T23:29:13.991Z,97073.31
2018-06-20T23:31:43.922Z,97068.22
2018-06-20T23:34:13.531Z,97076.83
2018-06-20T23:36:42.734Z,97082.51
2018-06-20T23:39:12.022Z,97070.72
2018-06-20T23:41:41.231Z,97067.30
2018-06-20T23:44:10.402Z,97057.52
2018-06-20T23:46:39.607Z,97057.95
2018-06-20T23:49:09.236Z,97060.81
2018-06-20T23:51:38.551Z,97059.78
2018-06-20T23:54:08.114Z,97062.33
2018-06-20T23:56:37.646Z,97060.42
2018-06-20T23:59:07.131Z,97059.63
